Time;durP1;ratioP1;P1;durP2;ratioP2;P2;SDS_P1;SDS_P2;PMS_P1;PMS_P2;Temp;Humidity;BMP_temperature;BMP_pressure;BME280_temperature;BME280_humidity;BME280_pressure;Samples;Min_cycle;Max_cycle;Signal;HPM_P1;HPM_P2
2022/08/09 04:00:25;;;;;;;2.40;2.20;;;18.50;97.10;;;;;;6031516;23;20386;-75
2022/08/09 04:02:55;;;;;;;6.63;2.50;;;18.50;97.20;;;;;;5054693;28;20460;-75
2022/08/09 04:05:22;;;;;;;4.90;2.73;;;18.50;97.20;;;;;;5054288;28;20480;-75
2022/08/09 04:07:48;;;;;;;4.23;2.43;;;18.50;97.50;;;;;;5054274;28;20448;-76
2022/08/09 04:10:16;;;;;;;4.10;2.93;;;18.40;97.70;;;;;;5053726;28;20467;-76
2022/08/09 04:12:46;;;;;;;3.30;2.80;;;18.50;97.80;;;;;;5034263;28;20454;-76
2022/08/09 04:15:14;;;;;;;2.97;2.70;;;18.40;98.00;;;;;;5039412;23;20495;-73
2022/08/09 04:17:43;;;;;;;3.60;3.13;;;18.40;98.00;;;;;;5014800;28;20470;-73
2022/08/09 04:20:12;;;;;;;3.00;2.63;;;18.40;98.50;;;;;;5014551;28;20458;-73
2022/08/09 04:22:39;;;;;;;3.57;2.60;;;18.30;98.60;;;;;;5014541;28;20541;-73
2022/08/09 04:25:08;;;;;;;4.00;2.90;;;18.30;98.60;;;;;;5014246;28;20478;-74
2022/08/09 04:27:39;;;;;;;3.17;2.20;;;18.30;98.40;;;;;;5014693;28;20463;-73
2022/08/09 04:30:09;;;;;;;3.60;2.50;;;18.30;98.20;;;;;;5014056;28;20483;-73
2022/08/09 04:32:35;;;;;;;5.20;2.70;;;18.30;98.80;;;;;;5014525;28;20447;-73
2022/08/09 04:35:04;;;;;;;3.90;2.90;;;18.30;98.90;;;;;;5013941;28;20471;-74
2022/08/09 04:37:31;;;;;;;3.77;2.83;;;18.30;98.80;;;;;;5013885;28;20459;-74
2022/08/09 04:39:58;;;;;;;5.63;2.90;;;18.30;99.00;;;;;;5014344;28;20456;-73
2022/08/09 04:42:28;;;;;;;4.43;3.00;;;18.30;99.30;;;;;;5014208;28;20470;-74
2022/08/09 04:44:54;;;;;;;5.00;2.87;;;18.20;99.20;;;;;;5013747;28;20863;-73
2022/08/09 04:47:21;;;;;;;5.40;3.40;;;18.20;99.90;;;;;;5014264;28;20458;-74
2022/08/09 04:49:48;;;;;;;3.17;2.90;;;18.20;99.70;;;;;;5007442;28;20493;-74
2022/08/09 04:52:16;;;;;;;3.10;2.80;;;18.20;99.60;;;;;;5007204;28;20488;-73
2022/08/09 04:54:43;;;;;;;2.60;2.40;;;18.20;99.30;;;;;;5006666;28;20482;-74
2022/08/09 04:57:10;;;;;;;6.83;3.30;;;18.20;99.30;;;;;;5007599;28;20465;-73
2022/08/09 04:59:37;;;;;;;5.17;3.40;;;18.20;99.40;;;;;;5007754;28;20462;-73
2022/08/09 05:02:04;;;;;;;6.27;3.20;;;18.20;99.60;;;;;;5005731;28;20463;-69
2022/08/09 05:04:31;;;;;;;5.10;2.87;;;18.20;99.90;;;;;;5006771;28;20479;-69
2022/08/09 05:06:58;;;;;;;3.70;3.30;;;18.20;99.90;;;;;;5007692;28;20469;-69
2022/08/09 05:09:27;;;;;;;3.30;3.00;;;18.20;99.90;;;;;;5007206;28;20495;-69
2022/08/09 05:11:54;;;;;;;3.00;2.50;;;18.20;99.90;;;;;;5007345;28;20469;-69
2022/08/09 05:14:21;;;;;;;4.17;2.97;;;18.10;99.90;;;;;;5006352;28;20491;-68
2022/08/09 05:16:48;;;;;;;3.30;2.80;;;18.10;99.90;;;;;;5007218;28;20958;-68
2022/08/09 05:19:20;;;;;;;3.97;2.80;;;18.10;99.90;;;;;;5006903;28;20458;-73
2022/08/09 05:21:48;;;;;;;5.17;2.77;;;18.10;99.90;;;;;;5007533;28;20443;-74
2022/08/09 05:24:15;;;;;;;6.23;3.80;;;18.10;99.90;;;;;;5006713;28;20612;-73
2022/08/09 05:26:43;;;;;;;3.43;3.00;;;18.10;99.90;;;;;;5005929;28;20837;-73
2022/08/09 05:29:12;;;;;;;4.70;3.20;;;18.10;99.90;;;;;;5006972;28;20501;-73
2022/08/09 05:31:38;;;;;;;4.13;3.17;;;18.10;99.90;;;;;;5006235;28;20874;-73
2022/08/09 05:34:05;;;;;;;4.80;3.03;;;18.10;99.90;;;;;;5006529;28;20479;-73
2022/08/09 05:36:32;;;;;;;3.70;2.77;;;18.10;99.90;;;;;;5006719;28;20459;-73
2022/08/09 05:38:59;;;;;;;4.73;2.90;;;18.10;99.90;;;;;;5006867;28;20825;-73
2022/08/09 05:41:26;;;;;;;4.20;3.80;;;18.10;99.90;;;;;;5007007;28;20538;-73
2022/08/09 05:43:54;;;;;;;3.90;3.00;;;18.10;99.90;;;;;;5006591;28;20475;-73
2022/08/09 05:46:21;;;;;;;4.23;2.87;;;18.10;99.90;;;;;;5006020;28;20458;-69
2022/08/09 05:48:48;;;;;;;8.57;3.30;;;18.10;99.90;;;;;;5006368;28;20490;-68
2022/08/09 05:51:14;;;;;;;5.37;2.53;;;18.10;99.90;;;;;;5006724;28;20450;-68
2022/08/09 05:53:41;;;;;;;3.93;2.80;;;18.10;99.90;;;;;;5005832;28;20848;-68
2022/08/09 05:56:08;;;;;;;4.70;3.10;;;18.20;99.90;;;;;;5004493;28;20458;-68
2022/08/09 05:58:35;;;;;;;3.30;2.63;;;18.10;99.90;;;;;;5005184;28;20451;-68
2022/08/09 06:01:03;;;;;;;3.27;2.70;;;18.10;99.90;;;;;;5006108;28;20490;-68
2022/08/09 06:03:30;;;;;;;3.10;2.90;;;18.10;99.90;;;;;;5004756;28;20985;-69
2022/08/09 06:05:57;;;;;;;5.50;3.23;;;18.20;99.90;;;;;;5005204;28;20466;-68
2022/08/09 06:08:24;;;;;;;3.50;3.20;;;18.20;99.90;;;;;;5006030;28;20471;-68
2022/08/09 06:10:51;;;;;;;3.60;3.20;;;18.20;99.90;;;;;;5005950;28;20975;-68
2022/08/09 06:13:18;;;;;;;3.40;3.17;;;18.30;99.90;;;;;;5005917;28;20454;-68
2022/08/09 06:15:45;;;;;;;3.80;2.77;;;18.30;99.90;;;;;;5005363;28;20454;-73
2022/08/09 06:18:13;;;;;;;3.00;2.40;;;18.30;99.90;;;;;;5006329;28;20461;-73
2022/08/09 06:20:40;;;;;;;4.43;2.60;;;18.40;99.90;;;;;;5006026;28;20846;-73
2022/08/09 06:23:07;;;;;;;10.10;2.77;;;18.40;99.90;;;;;;5005921;28;20846;-73
2022/08/09 06:25:34;;;;;;;3.80;2.97;;;18.40;99.90;;;;;;5005291;28;20474;-73
2022/08/09 06:28:00;;;;;;;4.73;2.83;;;18.50;99.90;;;;;;5005908;28;20484;-74
2022/08/09 06:30:27;;;;;;;3.63;2.70;;;18.50;99.90;;;;;;5005795;28;20486;-73
2022/08/09 06:32:54;;;;;;;3.23;2.67;;;18.50;99.90;;;;;;5005936;28;20459;-73
2022/08/09 06:35:22;;;;;;;3.03;2.73;;;18.50;99.90;;;;;;5005455;28;20482;-73
2022/08/09 06:37:49;;;;;;;6.67;3.67;;;18.60;99.90;;;;;;5005921;28;20462;-73
2022/08/09 06:40:16;;;;;;;3.97;2.83;;;18.60;99.90;;;;;;5005878;28;20455;-73
2022/08/09 06:42:43;;;;;;;3.90;3.50;;;18.70;99.90;;;;;;5006024;28;20454;-73
2022/08/09 06:45:10;;;;;;;4.60;2.60;;;18.70;99.90;;;;;;5005396;28;20479;-73
2022/08/09 06:47:37;;;;;;;5.33;2.93;;;18.80;99.90;;;;;;5005934;28;20466;-73
2022/08/09 06:50:05;;;;;;;3.30;2.93;;;18.80;99.90;;;;;;5005782;28;20493;-73
2022/08/09 06:52:33;;;;;;;3.57;3.10;;;18.90;99.90;;;;;;5005515;28;20974;-73
2022/08/09 06:55:00;;;;;;;7.17;2.90;;;18.90;99.90;;;;;;5004630;28;20486;-73
2022/08/09 06:57:27;;;;;;;4.53;3.20;;;19.00;99.90;;;;;;5005742;28;20465;-73
2022/08/09 06:59:54;;;;;;;2.90;2.53;;;19.10;99.90;;;;;;5005951;28;20462;-73
2022/08/09 07:02:21;;;;;;;3.80;2.50;;;19.10;99.90;;;;;;5005440;28;20469;-74
2022/08/09 07:04:48;;;;;;;8.50;3.07;;;19.20;99.90;;;;;;5003777;28;20482;-74
2022/08/09 07:07:15;;;;;;;5.10;2.97;;;19.30;99.90;;;;;;5005594;28;20470;-73
2022/08/09 07:09:43;;;;;;;3.90;2.77;;;19.50;99.90;;;;;;5005268;28;20522;-74
2022/08/09 07:12:10;;;;;;;2.80;2.60;;;19.50;99.90;;;;;;5005362;28;20549;-74
2022/08/09 07:14:37;;;;;;;4.03;2.30;;;19.60;99.90;;;;;;5004895;28;20486;-73
2022/08/09 07:17:04;;;;;;;2.43;2.23;;;19.60;99.90;;;;;;5005864;28;20455;-73
2022/08/09 07:19:31;;;;;;;4.27;2.60;;;19.70;99.90;;;;;;5005582;28;20998;-73
2022/08/09 07:21:58;;;;;;;4.00;2.27;;;19.90;99.90;;;;;;5005952;28;20465;-73
2022/08/09 07:24:26;;;;;;;3.63;2.60;;;20.00;99.90;;;;;;5006166;28;20474;-74
2022/08/09 07:26:54;;;;;;;3.10;2.50;;;20.10;99.90;;;;;;5003838;28;20468;-73
2022/08/09 07:29:21;;;;;;;5.40;2.57;;;20.10;99.90;;;;;;5006711;28;20565;-74
2022/08/09 07:31:47;;;;;;;4.93;2.53;;;20.20;99.90;;;;;;5005686;28;20451;-73
2022/08/09 07:34:15;;;;;;;3.10;2.80;;;20.40;99.90;;;;;;5004972;28;20863;-73
2022/08/09 07:36:42;;;;;;;3.77;2.90;;;20.50;99.90;;;;;;5004212;28;20459;-74
2022/08/09 07:39:08;;;;;;;2.50;2.30;;;20.60;99.90;;;;;;5005743;28;20445;-74
2022/08/09 07:41:35;;;;;;;4.70;2.70;;;20.70;99.90;;;;;;5005488;28;20954;-73
2022/08/09 07:44:04;;;;;;;2.23;2.00;;;20.80;99.90;;;;;;5004984;28;20481;-73
2022/08/09 07:46:31;;;;;;;2.70;2.30;;;20.90;99.90;;;;;;5005656;28;20462;-74
2022/08/09 07:48:57;;;;;;;2.73;2.53;;;21.00;99.90;;;;;;5005057;28;21030;-73
2022/08/09 07:51:24;;;;;;;3.27;2.50;;;21.10;99.90;;;;;;5008618;28;20458;-73
2022/08/09 07:53:52;;;;;;;3.13;2.83;;;21.10;99.90;;;;;;5009199;28;20479;-73
2022/08/09 07:56:19;;;;;;;3.03;2.73;;;21.20;99.90;;;;;;5008290;28;20462;-73
2022/08/09 07:58:45;;;;;;;3.30;3.00;;;21.40;99.90;;;;;;5008945;28;20950;-73
2022/08/09 08:01:14;;;;;;;4.27;2.43;;;21.50;99.90;;;;;;5008980;28;20951;-73
2022/08/09 08:03:41;;;;;;;4.07;2.87;;;21.60;99.90;;;;;;5008943;28;20478;-73
2022/08/09 08:06:08;;;;;;;3.50;2.10;;;21.70;99.90;;;;;;5007950;28;20817;-73
2022/08/09 08:08:35;;;;;;;7.07;3.10;;;21.80;99.90;;;;;;5008835;28;20465;-73
2022/08/09 08:11:02;;;;;;;2.57;2.37;;;21.90;99.90;;;;;;5009129;28;20489;-73
2022/08/09 08:13:29;;;;;;;3.07;2.13;;;22.10;99.90;;;;;;5009128;28;20507;-73
2022/08/09 08:15:56;;;;;;;3.50;2.40;;;22.20;99.90;;;;;;5008168;28;20461;-73
2022/08/09 08:18:24;;;;;;;3.20;2.40;;;22.30;99.90;;;;;;5008592;28;20462;-73
2022/08/09 08:20:51;;;;;;;4.23;2.33;;;22.30;99.90;;;;;;5008512;28;20459;-73
2022/08/09 08:23:19;;;;;;;5.23;2.20;;;22.50;99.90;;;;;;5008286;28;20469;-73
2022/08/09 08:25:47;;;;;;;2.47;2.27;;;22.70;99.90;;;;;;5007410;28;20505;-73
2022/08/09 08:28:15;;;;;;;2.43;2.23;;;22.80;99.90;;;;;;5008259;28;20466;-73
2022/08/09 08:30:42;;;;;;;2.63;2.43;;;22.90;99.90;;;;;;5008180;28;20490;-73
2022/08/09 08:33:09;;;;;;;3.03;2.43;;;22.90;99.90;;;;;;5008119;28;20489;-73
2022/08/09 08:35:37;;;;;;;3.50;2.63;;;23.10;99.90;;;;;;5007085;28;20458;-73
2022/08/09 08:38:04;;;;;;;3.23;2.30;;;23.20;99.90;;;;;;5007761;28;21022;-68
2022/08/09 08:40:32;;;;;;;4.37;2.43;;;23.30;99.90;;;;;;5008216;28;20498;-69
2022/08/09 08:42:59;;;;;;;3.00;2.40;;;23.40;99.90;;;;;;5006813;28;20973;-69
2022/08/09 08:45:29;;;;;;;2.30;2.10;;;23.50;99.90;;;;;;5007257;28;20481;-69
2022/08/09 08:47:56;;;;;;;5.93;2.47;;;23.60;99.90;;;;;;5007874;28;20462;-68
2022/08/09 08:50:23;;;;;;;5.57;2.60;;;23.70;99.90;;;;;;5007681;28;20545;-68
2022/08/09 08:52:53;;;;;;;2.50;2.23;;;23.70;99.90;;;;;;5007912;28;20458;-69
2022/08/09 08:55:19;;;;;;;3.80;3.00;;;23.90;99.90;;;;;;5006928;28;20917;-68
2022/08/09 08:57:48;;;;;;;2.50;2.13;;;23.90;99.90;;;;;;5007727;28;20838;-68
2022/08/09 09:00:15;;;;;;;2.37;2.17;;;24.00;99.90;;;;;;5007672;28;20447;-69
2022/08/09 09:02:44;;;;;;;3.53;2.27;;;24.10;99.90;;;;;;5007468;28;20550;-69
2022/08/09 09:05:12;;;;;;;3.63;2.43;;;24.30;99.90;;;;;;5006713;28;20683;-68
2022/08/09 09:07:43;;;;;;;3.00;2.37;;;24.40;99.90;;;;;;5007152;28;20474;-69
2022/08/09 09:10:11;;;;;;;3.13;2.40;;;24.50;99.90;;;;;;5013964;28;21017;-66
2022/08/09 09:12:39;;;;;;;5.40;2.10;;;24.60;99.90;;;;;;5018664;28;20471;-69
2022/08/09 09:15:07;;;;;;;2.47;2.23;;;24.70;98.80;;;;;;5018289;28;20483;-68
2022/08/09 09:17:34;;;;;;;6.03;2.20;;;24.80;99.10;;;;;;5016127;28;20546;-69
2022/08/09 09:20:01;;;;;;;2.50;2.30;;;24.90;98.40;;;;;;5016927;28;20446;-68
2022/08/09 09:22:28;;;;;;;3.10;2.40;;;25.00;99.30;;;;;;5018045;28;20530;-67
2022/08/09 09:24:56;;;;;;;2.30;2.10;;;25.10;98.70;;;;;;5018732;28;20489;-67
2022/08/09 09:27:25;;;;;;;4.63;2.50;;;25.20;98.30;;;;;;5022043;28;20489;-68
2022/08/09 09:29:53;;;;;;;2.20;2.00;;;25.30;97.40;;;;;;5020582;28;20487;-69
2022/08/09 09:32:21;;;;;;;3.53;2.40;;;25.40;97.10;;;;;;5018729;28;20604;-68
2022/08/09 09:35:04;;;;;;;3.50;2.17;;;25.50;97.50;;;;;;5020635;28;20482;-68
2022/08/09 09:37:31;;;;;;;3.23;2.47;;;25.60;96.50;;;;;;5021913;28;20530;-69
2022/08/09 09:39:58;;;;;;;3.10;2.37;;;25.70;95.90;;;;;;5021057;28;20459;-70
2022/08/09 09:42:28;;;;;;;4.93;2.10;;;25.70;96.80;;;;;;5015708;28;20542;-67
2022/08/09 09:44:57;;;;;;;4.30;2.23;;;25.80;95.40;;;;;;5016436;28;20479;-69
2022/08/09 09:47:25;;;;;;;2.40;2.20;;;25.90;96.20;;;;;;5013752;28;20462;-68
2022/08/09 09:49:54;;;;;;;6.53;2.47;;;26.00;94.90;;;;;;5014287;28;20573;-70
2022/08/09 09:52:22;;;;;;;4.43;2.30;;;26.00;95.30;;;;;;5016185;28;20454;-70
2022/08/09 09:54:49;;;;;;;3.63;1.93;;;26.10;95.10;;;;;;5017426;28;20560;-70
2022/08/09 09:57:18;;;;;;;2.63;1.90;;;26.20;94.50;;;;;;5016579;28;20462;-70
2022/08/09 09:59:48;;;;;;;5.90;2.57;;;26.30;93.90;;;;;;5016953;28;20459;-67
2022/08/09 10:02:17;;;;;;;2.80;2.50;;;26.40;93.70;;;;;;5017035;28;20466;-69
2022/08/09 10:04:45;;;;;;;2.67;2.17;;;26.50;92.30;;;;;;5017181;28;20514;-68
2022/08/09 10:07:23;;;;;;;3.40;1.80;;;26.50;92.30;;;;;;5017053;28;20454;-66
2022/08/09 10:09:52;;;;;;;2.90;2.23;;;26.60;92.90;;;;;;5017511;28;20455;-69
2022/08/09 10:12:28;;;;;;;3.00;2.17;;;26.70;92.60;;;;;;5014557;28;20459;-67
2022/08/09 10:15:14;;;;;;;3.10;1.93;;;26.80;93.30;;;;;;5015412;28;20486;-70
2022/08/09 10:17:44;;;;;;;5.13;2.20;;;26.80;93.50;;;;;;5012639;28;20536;-68
2022/08/09 10:20:26;;;;;;;3.20;2.20;;;26.90;92.70;;;;;;5013583;28;20534;-69
2022/08/09 10:22:54;;;;;;;3.50;2.50;;;27.00;93.00;;;;;;5014975;28;20693;-70
2022/08/09 10:25:22;;;;;;;2.23;2.03;;;27.10;92.30;;;;;;5012561;28;20489;-69
2022/08/09 10:27:50;;;;;;;3.33;2.13;;;27.20;92.70;;;;;;5013897;28;20554;-69
2022/08/09 10:30:19;;;;;;;10.30;2.13;;;27.30;91.30;;;;;;5011843;28;20862;-70
2022/08/09 10:32:46;;;;;;;2.63;1.93;;;27.30;92.20;;;;;;5008996;28;20466;-69
2022/08/09 10:35:13;;;;;;;3.90;2.50;;;27.40;91.30;;;;;;5007462;28;20482;-70
2022/08/09 10:37:40;;;;;;;2.50;2.10;;;27.40;90.10;;;;;;5007871;28;20539;-70
2022/08/09 10:40:08;;;;;;;4.33;1.87;;;27.50;90.70;;;;;;5006797;28;20455;-69
2022/08/09 10:42:35;;;;;;;2.70;1.83;;;27.60;90.50;;;;;;5007715;28;20464;-69
2022/08/09 10:45:05;;;;;;;2.57;2.10;;;27.60;90.80;;;;;;5007232;28;20529;-69
2022/08/09 10:47:48;;;;;;;3.53;2.40;;;27.70;90.40;;;;;;5009181;28;20455;-67
2022/08/09 10:50:23;;;;;;;2.77;1.90;;;27.80;89.40;;;;;;5009325;28;20483;-67
2022/08/09 10:53:04;;;;;;;1.90;1.60;;;27.80;90.50;;;;;;5007189;28;20457;-67
2022/08/09 10:55:32;;;;;;;2.50;1.90;;;27.90;87.90;;;;;;5007361;28;20466;-68
2022/08/09 10:57:59;;;;;;;3.13;2.13;;;28.00;88.10;;;;;;5005412;28;20844;-68
2022/08/09 11:00:41;;;;;;;3.93;2.10;;;28.10;88.40;;;;;;5005951;28;20893;-69
2022/08/09 11:03:22;;;;;;;3.17;2.10;;;28.20;90.60;;;;;;5001968;28;20471;-70
2022/08/09 11:06:19;;;;;;;3.33;2.00;;;28.20;90.00;;;;;;5005548;28;20565;-69
2022/08/09 11:08:47;;;;;;;3.20;2.00;;;28.30;87.60;;;;;;5005539;28;20590;-69
2022/08/09 11:11:15;;;;;;;2.30;1.87;;;28.40;86.30;;;;;;5006544;28;21268;-69
2022/08/09 11:13:42;;;;;;;2.80;2.03;;;28.50;85.30;;;;;;5005350;28;20982;-68
2022/08/09 11:16:31;;;;;;;3.53;1.80;;;28.50;86.10;;;;;;5004566;28;20471;-69
2022/08/09 11:18:59;;;;;;;4.70;2.00;;;28.60;88.90;;;;;;5006007;28;20459;-70
2022/08/09 11:22:07;;;;;;;3.10;1.90;;;28.60;86.20;;;;;;5005137;28;20837;-70
2022/08/09 11:25:06;;;;;;;6.23;2.20;;;28.70;81.70;;;;;;4985261;28;21232;-69
2022/08/09 11:27:35;;;;;;;2.37;1.97;;;28.70;84.50;;;;;;5009415;28;20447;-70
2022/08/09 11:30:03;;;;;;;1.47;1.37;;;28.80;82.80;;;;;;5008736;28;20462;-70
2022/08/09 11:32:46;;;;;;;1.70;1.57;;;28.80;84.40;;;;;;5011654;28;20462;-73
2022/08/09 11:35:20;;;;;;;2.60;1.60;;;29.00;83.00;;;;;;5007610;28;20478;-72
2022/08/09 11:37:49;;;;;;;2.30;1.70;;;29.00;81.90;;;;;;5008137;28;20438;-72
2022/08/09 11:40:27;;;;;;;3.63;1.90;;;29.10;81.00;;;;;;5007841;28;20455;-72
2022/08/09 11:42:56;;;;;;;5.40;1.83;;;29.20;81.40;;;;;;5008853;28;20557;-73
2022/08/09 11:45:27;;;;;;;3.23;1.63;;;29.20;80.40;;;;;;5008246;28;20641;-72
2022/08/09 11:47:57;;;;;;;3.53;1.60;;;29.20;80.40;;;;;;5008343;28;20473;-73
2022/08/09 11:50:26;;;;;;;5.03;1.73;;;29.30;80.00;;;;;;5008833;28;20935;-74
2022/08/09 11:53:19;;;;;;;2.33;1.60;;;29.40;79.10;;;;;;5008154;28;20493;-74
2022/08/09 11:55:46;;;;;;;2.30;1.80;;;29.40;80.20;;;;;;5008179;28;20439;-74
2022/08/09 11:58:42;;;;;;;2.90;1.87;;;29.50;80.00;;;;;;5008369;28;20966;-75
2022/08/09 12:01:09;;;;;;;2.23;1.90;;;29.50;79.00;;;;;;5007770;28;20461;-72
2022/08/09 12:03:37;;;;;;;2.37;1.80;;;29.60;79.10;;;;;;5008370;28;20637;-75
2022/08/09 12:06:15;;;;;;;2.57;1.70;;;29.70;78.90;;;;;;5007795;28;20810;-74
2022/08/09 12:08:48;;;;;;;3.70;2.00;;;29.70;78.90;;;;;;5008939;28;20458;-74
2022/08/09 12:11:16;;;;;;;2.63;1.80;;;29.80;78.70;;;;;;5008126;28;21006;-76
2022/08/09 12:13:46;;;;;;;2.63;1.97;;;29.80;75.50;;;;;;5007808;28;20490;-75
2022/08/09 12:16:17;;;;;;;3.77;1.63;;;29.90;77.70;;;;;;5007854;28;20873;-77
2022/08/09 12:18:47;;;;;;;3.63;1.73;;;29.90;77.60;;;;;;5008106;28;20521;-73
2022/08/09 12:21:25;;;;;;;2.53;1.90;;;30.00;76.40;;;;;;5008184;28;21207;-73
2022/08/09 12:23:53;;;;;;;5.60;1.50;;;30.10;75.20;;;;;;5007820;28;20572;-73
2022/08/09 12:26:21;;;;;;;3.93;1.90;;;30.10;75.40;;;;;;5007217;28;20556;-76
2022/08/09 12:28:50;;;;;;;3.33;1.60;;;30.10;76.60;;;;;;5007983;28;20463;-75
2022/08/09 12:31:19;;;;;;;3.63;2.10;;;30.10;74.10;;;;;;5008167;28;21035;-74
2022/08/09 12:33:46;;;;;;;5.30;1.70;;;30.20;75.20;;;;;;5007994;28;20478;-73
2022/08/09 12:36:13;;;;;;;2.00;1.70;;;30.20;76.90;;;;;;5006442;28;20459;-74
2022/08/09 12:38:41;;;;;;;1.60;1.40;;;30.30;74.20;;;;;;5007956;28;20459;-74
2022/08/09 12:41:08;;;;;;;1.87;1.70;;;30.30;73.20;;;;;;5008026;28;20459;-73
2022/08/09 12:43:36;;;;;;;4.07;1.80;;;30.40;74.90;;;;;;5007715;28;20478;-74
2022/08/09 12:46:03;;;;;;;3.67;1.60;;;30.50;74.10;;;;;;5007017;28;20822;-75
2022/08/09 12:48:31;;;;;;;2.63;1.50;;;30.50;74.60;;;;;;5008071;28;20469;-74
2022/08/09 12:50:59;;;;;;;2.60;1.80;;;30.50;72.60;;;;;;5007795;28;20486;-76
2022/08/09 12:53:31;;;;;;;5.23;1.93;;;30.60;73.00;;;;;;5007416;28;20985;-73
2022/08/09 12:56:08;;;;;;;2.20;1.53;;;30.70;73.20;;;;;;5007121;28;20455;-71
2022/08/09 12:58:36;;;;;;;3.00;1.50;;;30.70;73.50;;;;;;5007774;28;20451;-71
2022/08/09 13:01:04;;;;;;;3.23;2.37;;;30.70;73.10;;;;;;5007624;28;20473;-71
2022/08/09 13:03:33;;;;;;;1.90;1.40;;;30.80;72.70;;;;;;5007734;28;20479;-74
2022/08/09 13:06:00;;;;;;;3.07;1.50;;;30.80;70.20;;;;;;5006489;28;20458;-71
2022/08/09 13:08:27;;;;;;;6.23;2.57;;;30.80;71.40;;;;;;5007530;28;20462;-72
2022/08/09 13:10:58;;;;;;;2.50;1.57;;;30.90;71.10;;;;;;5007645;28;20490;-71
2022/08/09 13:13:31;;;;;;;2.47;1.80;;;31.00;72.00;;;;;;5007069;28;20502;-74
2022/08/09 13:16:00;;;;;;;3.60;1.60;;;31.00;72.10;;;;;;5006826;28;20446;-72
2022/08/09 13:18:29;;;;;;;2.90;1.77;;;31.00;72.60;;;;;;5007118;28;20466;-71
2022/08/09 13:20:57;;;;;;;2.27;1.87;;;31.10;73.60;;;;;;5007641;28;20459;-71
2022/08/09 13:23:39;;;;;;;2.73;1.20;;;31.20;72.40;;;;;;5007246;28;20479;-71
2022/08/09 13:26:06;;;;;;;1.73;1.40;;;31.20;69.00;;;;;;5006819;28;20482;-71
2022/08/09 13:28:35;;;;;;;3.80;1.47;;;31.30;69.90;;;;;;5005665;28;20458;-72
2022/08/09 13:31:07;;;;;;;2.63;2.00;;;31.30;69.00;;;;;;5005900;28;21010;-72
2022/08/09 13:33:34;;;;;;;1.47;1.33;;;31.40;70.20;;;;;;5005693;28;20540;-72
2022/08/09 13:36:01;;;;;;;2.50;1.63;;;31.40;69.80;;;;;;5005278;28;21282;-72
2022/08/09 13:38:28;;;;;;;3.37;1.80;;;31.50;71.50;;;;;;5006345;28;20450;-72
2022/08/09 13:41:00;;;;;;;4.20;1.50;;;31.50;69.80;;;;;;5005662;28;20466;-72
2022/08/09 13:43:31;;;;;;;2.97;1.63;;;31.50;71.20;;;;;;5005603;28;20839;-72
2022/08/09 13:45:59;;;;;;;3.03;1.70;;;31.60;70.10;;;;;;5005016;28;20462;-71
2022/08/09 13:48:26;;;;;;;2.43;1.57;;;31.60;71.20;;;;;;5005115;28;20454;-72
2022/08/09 13:50:53;;;;;;;2.20;1.40;;;31.60;70.20;;;;;;5005806;28;20455;-73
2022/08/09 13:53:19;;;;;;;2.33;1.23;;;31.60;70.80;;;;;;5005263;28;20460;-72
2022/08/09 13:55:46;;;;;;;2.70;1.63;;;31.60;69.20;;;;;;5005278;28;20462;-72
2022/08/09 13:58:13;;;;;;;4.80;1.60;;;31.70;70.00;;;;;;5005391;28;20872;-73
2022/08/09 14:00:40;;;;;;;1.87;1.53;;;31.70;69.30;;;;;;5005591;28;20458;-72
2022/08/09 14:03:08;;;;;;;1.87;1.37;;;31.80;70.00;;;;;;5005987;28;20455;-72
2022/08/09 14:05:36;;;;;;;2.83;1.70;;;31.90;69.70;;;;;;5005130;28;20465;-73
2022/08/09 14:08:04;;;;;;;4.23;1.90;;;31.90;69.20;;;;;;5004309;28;20462;-72
2022/08/09 14:10:31;;;;;;;2.87;1.50;;;31.90;67.80;;;;;;5005540;28;20489;-73
2022/08/09 14:12:58;;;;;;;3.37;1.80;;;31.90;67.70;;;;;;5005855;28;20494;-72
2022/08/09 14:15:25;;;;;;;2.80;1.50;;;32.00;69.10;;;;;;5005044;28;20490;-72
2022/08/09 14:17:52;;;;;;;4.70;1.83;;;32.00;69.30;;;;;;5005517;28;20977;-72
2022/08/09 14:20:20;;;;;;;2.40;1.77;;;32.00;68.30;;;;;;5005507;28;20985;-72
2022/08/09 14:22:47;;;;;;;2.63;1.77;;;32.10;69.10;;;;;;5005502;28;20454;-75
2022/08/09 14:25:14;;;;;;;2.40;1.47;;;32.10;68.20;;;;;;5005333;28;20490;-75
2022/08/09 14:27:40;;;;;;;2.70;1.70;;;32.10;68.40;;;;;;5005666;28;20951;-73
2022/08/09 14:30:08;;;;;;;5.60;1.70;;;32.20;68.00;;;;;;5005720;28;20538;-73
2022/08/09 14:32:35;;;;;;;5.53;1.77;;;32.20;68.00;;;;;;5005570;28;20494;-73
2022/08/09 14:35:02;;;;;;;4.30;1.60;;;32.20;68.30;;;;;;5004929;28;20482;-74
2022/08/09 14:37:30;;;;;;;6.90;1.87;;;32.20;67.00;;;;;;5004838;28;20459;-74
2022/08/09 14:39:57;;;;;;;3.10;1.70;;;32.30;67.30;;;;;;5005504;28;20548;-73
2022/08/09 14:42:24;;;;;;;1.83;1.43;;;32.30;67.60;;;;;;5005635;28;20457;-75
2022/08/09 14:44:51;;;;;;;2.90;1.70;;;32.30;67.00;;;;;;5004625;28;20570;-74
2022/08/09 14:47:18;;;;;;;2.90;1.67;;;32.30;67.80;;;;;;5005951;28;20490;-73
2022/08/09 14:49:45;;;;;;;2.20;1.50;;;32.30;67.50;;;;;;5005714;28;20455;-73
2022/08/09 14:52:12;;;;;;;1.87;1.57;;;32.40;67.70;;;;;;5005556;28;20497;-73
2022/08/09 14:54:40;;;;;;;2.33;1.93;;;32.40;68.00;;;;;;5003877;28;20477;-73
2022/08/09 14:57:07;;;;;;;2.63;1.93;;;32.40;68.20;;;;;;5005976;28;20545;-75
2022/08/09 14:59:34;;;;;;;2.47;1.60;;;32.40;66.80;;;;;;5008062;28;20865;-73
2022/08/09 15:02:01;;;;;;;2.80;1.60;;;32.50;68.50;;;;;;5010515;28;20459;-73
2022/08/09 15:04:28;;;;;;;2.00;1.80;;;32.50;68.10;;;;;;5008748;28;20831;-73
2022/08/09 15:06:55;;;;;;;3.23;1.57;;;32.50;68.20;;;;;;5009291;28;20838;-74
2022/08/09 15:09:22;;;;;;;2.00;1.77;;;32.60;67.30;;;;;;5009233;28;20458;-74
2022/08/09 15:11:50;;;;;;;2.53;2.30;;;32.60;68.10;;;;;;5009174;28;20490;-74
2022/08/09 15:14:17;;;;;;;2.20;1.77;;;32.60;66.70;;;;;;5008497;28;20490;-73
2022/08/09 15:16:44;;;;;;;1.90;1.47;;;32.60;63.50;;;;;;5009129;28;20463;-74
2022/08/09 15:19:10;;;;;;;2.10;1.70;;;32.50;64.50;;;;;;5008176;28;20455;-75
2022/08/09 15:21:37;;;;;;;3.50;1.80;;;32.60;63.80;;;;;;5009776;28;20471;-73
2022/08/09 15:24:05;;;;;;;3.10;1.93;;;32.50;65.30;;;;;;5008351;28;20471;-74
2022/08/09 15:26:32;;;;;;;3.63;1.63;;;32.60;65.40;;;;;;5008743;28;20461;-73
2022/08/09 15:29:02;;;;;;;1.73;1.60;;;32.60;64.10;;;;;;5009590;28;20458;-73
2022/08/09 15:31:29;;;;;;;2.23;1.80;;;32.70;64.80;;;;;;5008935;28;20462;-75
2022/08/09 15:33:56;;;;;;;3.23;1.60;;;32.70;63.60;;;;;;5008883;28;20471;-75
2022/08/09 15:36:23;;;;;;;4.13;1.80;;;32.70;63.80;;;;;;5009106;28;20460;-73
2022/08/09 15:38:50;;;;;;;4.00;1.97;;;32.70;65.50;;;;;;5008818;28;20472;-73
2022/08/09 15:41:17;;;;;;;3.50;2.10;;;32.80;65.90;;;;;;5009206;28;20454;-74
2022/08/09 15:43:44;;;;;;;3.10;1.67;;;32.80;63.60;;;;;;5008921;28;20489;-73
2022/08/09 15:46:12;;;;;;;4.77;2.87;;;32.70;64.60;;;;;;5008078;28;20459;-75
2022/08/09 15:48:39;;;;;;;7.20;3.30;;;32.70;65.20;;;;;;5009124;28;20465;-76
2022/08/09 15:51:06;;;;;;;5.43;2.10;;;32.60;65.40;;;;;;5012091;28;20458;-72
2022/08/09 15:53:33;;;;;;;3.30;2.20;;;32.60;65.20;;;;;;5020313;28;20728;-73
2022/08/09 15:55:59;;;;;;;4.50;2.20;;;32.60;64.70;;;;;;5018678;28;20468;-72
2022/08/09 15:58:26;;;;;;;2.77;2.00;;;32.60;66.00;;;;;;5021133;28;20581;-72
2022/08/09 16:00:53;;;;;;;3.13;1.70;;;32.70;65.50;;;;;;5021486;28;20447;-71
2022/08/09 16:03:21;;;;;;;7.60;2.00;;;32.70;64.00;;;;;;5018621;28;20558;-73
2022/08/09 16:05:48;;;;;;;4.20;1.93;;;32.70;65.80;;;;;;5019149;28;20451;-71
2022/08/09 16:08:15;;;;;;;5.13;2.20;;;32.80;64.60;;;;;;5018832;28;20459;-74
2022/08/09 16:10:42;;;;;;;2.73;1.93;;;32.80;65.40;;;;;;5016363;28;20970;-73
2022/08/09 16:13:09;;;;;;;3.50;2.20;;;32.80;64.50;;;;;;5019339;28;20510;-71
2022/08/09 16:15:36;;;;;;;4.50;2.30;;;32.90;64.40;;;;;;5021532;28;20529;-73
2022/08/09 16:18:03;;;;;;;3.53;1.93;;;32.90;65.30;;;;;;5019512;28;20486;-73
2022/08/09 16:20:31;;;;;;;4.10;2.10;;;32.80;63.50;;;;;;5016365;28;20489;-73
2022/08/09 16:22:58;;;;;;;4.87;1.50;;;32.70;65.80;;;;;;5018576;28;20441;-71
2022/08/09 16:25:25;;;;;;;4.23;2.17;;;32.70;63.70;;;;;;5015270;28;20488;-73
2022/08/09 16:27:53;;;;;;;3.40;1.80;;;32.70;63.10;;;;;;5018091;28;20463;-72
2022/08/09 16:30:20;;;;;;;4.30;2.00;;;32.70;62.40;;;;;;5019140;28;20521;-74
2022/08/09 16:35:32;;;;;;;4.30;1.93;;;32.60;63.70;;;;;;5014627;28;20487;-73
2022/08/09 16:38:00;;;;;;;3.03;2.00;;;32.50;62.90;;;;;;5015227;28;20545;-73
2022/08/09 16:40:26;;;;;;;2.53;1.97;;;32.50;63.60;;;;;;5017244;28;20461;-72
2022/08/09 16:42:53;;;;;;;2.80;2.03;;;32.50;64.60;;;;;;5015397;28;20534;-73
2022/08/09 16:45:20;;;;;;;2.13;1.93;;;32.40;62.70;;;;;;5017403;28;20486;-73
2022/08/09 16:47:49;;;;;;;4.80;2.03;;;32.30;62.90;;;;;;5020768;28;20463;-73
2022/08/09 16:50:17;;;;;;;6.67;1.90;;;32.30;62.30;;;;;;5019148;28;20454;-73
2022/08/09 16:52:45;;;;;;;4.77;1.90;;;32.30;63.30;;;;;;5018128;28;20501;-72
2022/08/09 16:55:13;;;;;;;2.50;1.97;;;32.30;63.90;;;;;;5020070;28;20510;-73
2022/08/09 16:57:40;;;;;;;2.07;1.87;;;32.20;62.70;;;;;;5021719;28;20486;-72